createdAt,value
2019-03-17T00:01:12.191Z,99.90
2019-03-17T00:03:40.417Z,99.90
2019-03-17T00:06:08.264Z,99.90
2019-03-17T00:08:36.215Z,99.90
2019-03-17T00:11:04.225Z,99.90
2019-03-17T00:13:32.099Z,99.90
2019-03-17T00:15:59.846Z,99.90
2019-03-17T00:18:27.969Z,99.90
2019-03-17T00:20:55.897Z,99.90
2019-03-17T00:23:23.858Z,99.90
2019-03-17T00:25:51.619Z,99.90
2019-03-17T00:28:19.309Z,99.90
2019-03-17T00:30:47.186Z,99.90
2019-03-17T00:33:15.099Z,99.90
2019-03-17T00:35:42.938Z,99.90
2019-03-17T00:38:11.098Z,99.90
2019-03-17T00:40:38.893Z,99.90
2019-03-17T00:43:06.853Z,99.90
2019-03-17T00:45:34.829Z,99.90
2019-03-17T00:48:03.025Z,99.90
2019-03-17T00:50:30.973Z,99.90
2019-03-17T00:52:58.840Z,99.90
2019-03-17T00:55:26.846Z,99.90
2019-03-17T00:57:54.697Z,99.90
2019-03-17T01:00:22.559Z,99.90
2019-03-17T01:02:50.561Z,99.90
2019-03-17T01:05:18.509Z,99.90
2019-03-17T01:07:46.488Z,99.90
2019-03-17T01:10:14.397Z,99.90
2019-03-17T01:12:44.721Z,99.90
2019-03-17T01:15:11.957Z,99.90
2019-03-17T01:17:39.946Z,99.90
2019-03-17T01:20:08.010Z,99.90
2019-03-17T01:22:35.873Z,99.90
2019-03-17T01:25:04.332Z,99.90
2019-03-17T01:27:32.248Z,99.90
2019-03-17T01:30:00.391Z,99.90
2019-03-17T01:32:28.505Z,99.90
2019-03-17T01:35:08.227Z,99.90
2019-03-17T01:37:26.177Z,99.90
2019-03-17T01:39:54.392Z,99.90
2019-03-17T01:42:22.230Z,99.90
2019-03-17T01:44:50.206Z,99.90
2019-03-17T01:47:18.314Z,99.90
2019-03-17T01:49:46.249Z,99.90
2019-03-17T01:52:14.224Z,99.90
2019-03-17T01:54:42.121Z,99.90
2019-03-17T01:57:10.269Z,99.90
2019-03-17T01:59:38.152Z,99.90
2019-03-17T02:02:06.049Z,99.90
2019-03-17T02:04:34.103Z,99.90
2019-03-17T02:07:02.078Z,99.90
2019-03-17T02:09:30.042Z,99.90
2019-03-17T02:11:57.917Z,99.90
2019-03-17T02:14:25.799Z,99.90
2019-03-17T02:16:53.689Z,99.90
2019-03-17T02:19:21.637Z,99.90
2019-03-17T02:21:49.609Z,99.90
2019-03-17T02:24:17.626Z,99.90
2019-03-17T02:26:45.373Z,99.90
2019-03-17T02:29:13.233Z,99.90
2019-03-17T02:31:41.244Z,99.90
2019-03-17T02:34:11.888Z,99.90
2019-03-17T02:36:38.894Z,99.90
2019-03-17T02:39:06.943Z,99.90
2019-03-17T02:41:34.944Z,99.90
2019-03-17T02:44:02.820Z,99.90
2019-03-17T02:46:30.942Z,99.90
2019-03-17T02:48:58.873Z,99.90
2019-03-17T02:51:26.842Z,99.90
2019-03-17T02:53:55.174Z,99.90
2019-03-17T02:56:23.201Z,99.90
2019-03-17T02:58:51.179Z,99.90
2019-03-17T03:01:19.097Z,99.90
2019-03-17T03:03:47.235Z,99.90
2019-03-17T03:06:15.167Z,99.90
2019-03-17T03:08:43.422Z,99.90
2019-03-17T03:11:11.368Z,99.90
2019-03-17T03:13:39.134Z,99.90
2019-03-17T03:16:07.151Z,99.90
2019-03-17T03:18:35.278Z,99.90
2019-03-17T03:21:03.150Z,99.90
2019-03-17T03:23:31.171Z,99.90
2019-03-17T03:25:59.103Z,99.90
2019-03-17T03:28:27.077Z,99.90
2019-03-17T03:30:55.212Z,99.90
2019-03-17T03:33:23.219Z,99.90
2019-03-17T03:35:51.313Z,99.90
2019-03-17T03:38:19.224Z,99.90
2019-03-17T03:40:47.063Z,99.90
2019-03-17T03:43:15.039Z,99.90
2019-03-17T03:45:43.043Z,99.90
2019-03-17T03:48:10.969Z,99.90
2019-03-17T03:50:38.971Z,99.90
2019-03-17T03:53:06.966Z,99.90
2019-03-17T03:55:34.825Z,99.90
2019-03-17T03:58:02.982Z,99.90
2019-03-17T04:00:30.896Z,99.90
2019-03-17T04:02:58.834Z,99.90
2019-03-17T04:05:26.809Z,99.90
2019-03-17T04:07:54.807Z,99.90
2019-03-17T04:10:22.649Z,99.90
2019-03-17T04:12:50.729Z,99.90
2019-03-17T04:15:18.833Z,99.90
2019-03-17T04:17:46.895Z,99.90
2019-03-17T04:20:14.878Z,99.90
2019-03-17T04:22:42.894Z,99.90
2019-03-17T04:25:14.694Z,99.90
2019-03-17T04:27:42.772Z,99.90
2019-03-17T04:30:10.872Z,99.90
2019-03-17T04:32:39.027Z,99.90
2019-03-17T04:35:07.009Z,99.90
2019-03-17T04:37:34.802Z,99.90
2019-03-17T04:40:02.945Z,99.90
2019-03-17T04:42:31.037Z,99.90
2019-03-17T04:44:59.145Z,99.90
2019-03-17T04:47:26.975Z,99.90
2019-03-17T04:49:54.866Z,99.90
2019-03-17T04:52:22.793Z,99.90
2019-03-17T04:54:51.011Z,99.90
2019-03-17T04:57:18.976Z,99.90
2019-03-17T04:59:47.218Z,99.90
2019-03-17T05:02:15.347Z,99.90
2019-03-17T05:04:43.204Z,99.90
2019-03-17T05:07:11.323Z,99.90
2019-03-17T05:09:39.262Z,99.90
2019-03-17T05:12:07.088Z,99.90
2019-03-17T05:14:35.169Z,99.90
2019-03-17T05:17:03.285Z,99.90
2019-03-17T05:19:31.262Z,99.90
2019-03-17T05:21:59.509Z,99.90
2019-03-17T05:24:27.231Z,99.90
2019-03-17T05:26:54.995Z,99.90
2019-03-17T05:29:23.017Z,99.90
2019-03-17T05:31:51.037Z,99.90
2019-03-17T05:34:18.902Z,99.90
2019-03-17T05:36:47.041Z,99.90
2019-03-17T05:39:14.865Z,99.90
2019-03-17T05:41:42.759Z,99.90
2019-03-17T05:44:10.769Z,99.90
2019-03-17T05:46:38.674Z,99.90
2019-03-17T05:49:06.658Z,99.90
2019-03-17T05:51:34.699Z,99.90
2019-03-17T05:54:02.714Z,99.90
2019-03-17T05:56:30.781Z,99.90
2019-03-17T05:58:58.924Z,99.90
2019-03-17T06:01:26.943Z,99.90
2019-03-17T06:03:55.113Z,99.90
2019-03-17T06:06:23.232Z,99.90
2019-03-17T06:08:51.267Z,99.90
2019-03-17T06:11:19.137Z,99.90
2019-03-17T06:13:47.065Z,99.90
2019-03-17T06:16:15.086Z,99.90
2019-03-17T06:18:42.961Z,99.90
2019-03-17T06:21:11.282Z,99.90
2019-03-17T06:23:39.517Z,99.90
2019-03-17T06:26:07.517Z,99.90
2019-03-17T06:28:35.406Z,99.90
2019-03-17T06:31:03.365Z,99.90
2019-03-17T06:33:31.246Z,99.90
2019-03-17T06:35:59.165Z,99.90
2019-03-17T06:38:27.065Z,99.90
2019-03-17T06:40:55.045Z,99.90
2019-03-17T06:43:23.297Z,99.90
2019-03-17T06:45:51.196Z,99.90
2019-03-17T06:48:19.275Z,99.90
2019-03-17T06:50:47.308Z,99.90
2019-03-17T06:53:15.222Z,99.90
2019-03-17T06:55:43.295Z,99.90
2019-03-17T06:58:11.830Z,99.90
2019-03-17T07:00:39.671Z,99.90
2019-03-17T07:03:07.752Z,99.90
2019-03-17T07:05:35.510Z,99.90
2019-03-17T07:08:03.601Z,99.90
2019-03-17T07:10:31.473Z,99.90
2019-03-17T07:12:59.435Z,99.90
2019-03-17T07:15:27.397Z,99.90
2019-03-17T07:17:55.377Z,99.90
2019-03-17T07:20:23.801Z,99.90
2019-03-17T07:22:51.743Z,99.90
2019-03-17T07:25:19.907Z,99.90
2019-03-17T07:27:47.943Z,99.90
2019-03-17T07:30:15.975Z,99.90
2019-03-17T07:32:44.035Z,99.90
2019-03-17T07:35:12.171Z,99.90
2019-03-17T07:37:40.097Z,99.90
2019-03-17T07:40:09.097Z,99.90
2019-03-17T07:42:37.278Z,99.90
2019-03-17T07:45:05.762Z,99.90
2019-03-17T07:47:35.773Z,99.90
2019-03-17T07:50:04.391Z,99.90
2019-03-17T07:52:32.353Z,99.90
2019-03-17T07:55:00.366Z,99.90
2019-03-17T07:57:28.538Z,99.90
2019-03-17T07:59:56.484Z,99.90
2019-03-17T08:02:25.581Z,99.90
2019-03-17T08:04:53.778Z,99.90
2019-03-17T08:07:21.745Z,99.90
2019-03-17T08:09:49.633Z,99.90
2019-03-17T08:12:17.508Z,99.90
2019-03-17T08:14:45.443Z,99.90
2019-03-17T08:17:13.419Z,99.90
2019-03-17T08:19:41.325Z,99.90
2019-03-17T08:22:09.267Z,99.90
2019-03-17T08:24:36.946Z,99.90
2019-03-17T08:27:05.046Z,99.90
2019-03-17T08:29:32.738Z,99.90
2019-03-17T08:32:00.441Z,99.90
2019-03-17T08:34:28.137Z,99.90
2019-03-17T08:36:55.838Z,99.90
2019-03-17T08:39:23.549Z,99.90
2019-03-17T08:41:51.661Z,99.90
2019-03-17T08:44:19.676Z,99.90
2019-03-17T08:46:47.369Z,99.90
2019-03-17T08:49:15.106Z,99.90
2019-03-17T08:51:42.825Z,99.90
2019-03-17T08:54:10.562Z,99.90
2019-03-17T08:56:38.337Z,99.90
2019-03-17T08:59:06.072Z,99.90
2019-03-17T09:01:34.211Z,99.90
2019-03-17T09:04:02.233Z,99.90
2019-03-17T09:06:29.951Z,99.90
2019-03-17T09:08:57.659Z,99.90
2019-03-17T09:11:25.411Z,99.90
2019-03-17T09:13:53.121Z,99.90
2019-03-17T09:16:20.838Z,99.90
2019-03-17T09:18:48.698Z,99.90
2019-03-17T09:21:16.402Z,99.90
2019-03-17T09:23:44.122Z,99.90
2019-03-17T09:26:12.044Z,99.90
2019-03-17T09:28:39.847Z,99.90
2019-03-17T09:31:07.702Z,99.90
2019-03-17T09:33:36.776Z,99.90
2019-03-17T09:36:04.564Z,99.90
2019-03-17T09:38:32.473Z,99.90
2019-03-17T09:41:00.267Z,99.90
2019-03-17T09:43:27.977Z,99.90
2019-03-17T09:45:56.087Z,99.90
2019-03-17T09:48:23.846Z,99.90
2019-03-17T09:50:51.561Z,99.90
2019-03-17T09:53:19.326Z,99.90
2019-03-17T09:55:47.062Z,99.90
2019-03-17T09:58:15.041Z,99.90
2019-03-17T10:00:42.933Z,99.90
2019-03-17T10:03:10.806Z,99.90
2019-03-17T10:05:38.776Z,99.90
2019-03-17T10:08:06.737Z,99.90
2019-03-17T10:10:34.483Z,99.90
2019-03-17T10:13:02.217Z,99.90
2019-03-17T10:15:29.946Z,99.90
2019-03-17T10:17:57.691Z,99.90
2019-03-17T10:20:25.819Z,99.90
2019-03-17T10:22:53.772Z,99.90
2019-03-17T10:25:21.957Z,99.90
2019-03-17T10:27:49.913Z,99.90
2019-03-17T10:30:17.892Z,99.90
2019-03-17T10:32:45.877Z,99.90
2019-03-17T10:35:13.849Z,99.90
2019-03-17T10:37:41.857Z,99.90
2019-03-17T10:40:11.925Z,99.90
2019-03-17T10:42:39.925Z,99.90
2019-03-17T10:45:08.285Z,99.90
2019-03-17T10:47:36.277Z,99.90
2019-03-17T10:50:04.683Z,99.90
2019-03-17T10:52:32.749Z,99.90
2019-03-17T10:55:00.597Z,99.90
2019-03-17T10:57:28.590Z,99.90
2019-03-17T10:59:56.646Z,99.90
2019-03-17T11:02:24.745Z,99.90
2019-03-17T11:04:52.805Z,99.90
2019-03-17T11:07:20.801Z,99.90
2019-03-17T11:09:48.661Z,99.90
2019-03-17T11:12:16.752Z,99.90
2019-03-17T11:14:44.574Z,99.90
2019-03-17T11:17:12.341Z,99.90
2019-03-17T11:19:40.349Z,99.90
2019-03-17T11:22:08.551Z,99.90
2019-03-17T11:24:36.507Z,99.90
2019-03-17T11:27:04.474Z,99.90
2019-03-17T11:29:32.215Z,99.90
2019-03-17T11:31:59.921Z,99.90
2019-03-17T11:34:27.651Z,99.90
2019-03-17T11:36:55.363Z,99.90
2019-03-17T11:39:23.067Z,99.90
2019-03-17T11:41:50.861Z,99.90
2019-03-17T11:44:18.814Z,99.90
2019-03-17T11:46:46.637Z,99.90
2019-03-17T11:49:14.809Z,99.90
2019-03-17T11:51:42.914Z,99.90
2019-03-17T11:54:10.994Z,99.90
2019-03-17T11:56:38.957Z,99.90
2019-03-17T11:59:06.921Z,99.90
2019-03-17T12:01:35.010Z,99.90
2019-03-17T12:04:02.988Z,99.90
2019-03-17T12:06:30.852Z,99.90
2019-03-17T12:08:58.833Z,99.90
2019-03-17T12:11:26.797Z,99.90
2019-03-17T12:13:54.795Z,99.90
2019-03-17T12:16:22.947Z,99.90
2019-03-17T12:18:50.942Z,99.90
2019-03-17T12:21:18.910Z,99.90
2019-03-17T12:23:46.840Z,99.90
2019-03-17T12:26:14.748Z,99.90
2019-03-17T12:28:42.842Z,99.90
2019-03-17T12:31:10.946Z,99.90
2019-03-17T12:33:38.910Z,99.90
2019-03-17T12:36:06.864Z,99.90
2019-03-17T12:38:34.882Z,99.90
2019-03-17T12:41:03.033Z,99.90
2019-03-17T12:43:31.109Z,99.90
2019-03-17T12:45:59.019Z,99.90
2019-03-17T12:48:27.135Z,99.90
2019-03-17T12:50:55.271Z,99.90
2019-03-17T12:53:23.298Z,99.90
2019-03-17T12:55:51.296Z,99.90
2019-03-17T12:58:19.120Z,99.90
2019-03-17T13:00:47.225Z,99.90
2019-03-17T13:03:15.087Z,99.90
2019-03-17T13:05:43.049Z,99.90
2019-03-17T13:08:10.949Z,99.90
2019-03-17T13:10:39.125Z,99.90
2019-03-17T13:13:07.076Z,99.90
2019-03-17T13:15:35.169Z,99.90
2019-03-17T13:18:02.946Z,99.90
2019-03-17T13:20:31.531Z,99.90
2019-03-17T13:22:59.485Z,99.90
2019-03-17T13:25:27.615Z,99.90
2019-03-17T13:27:55.389Z,99.90
2019-03-17T13:30:23.306Z,99.90
2019-03-17T13:32:51.277Z,99.90
2019-03-17T13:35:19.182Z,99.90
2019-03-17T13:37:47.136Z,99.90
2019-03-17T13:40:27.608Z,99.90
2019-03-17T13:42:44.743Z,99.90
2019-03-17T13:45:12.715Z,99.90
2019-03-17T13:47:40.504Z,99.90
2019-03-17T13:50:10.429Z,99.90
2019-03-17T13:52:38.358Z,99.90
2019-03-17T13:55:06.325Z,99.90
2019-03-17T13:57:34.375Z,99.90
2019-03-17T14:00:02.290Z,99.90
2019-03-17T14:02:30.369Z,99.90
2019-03-17T14:04:58.329Z,99.90
2019-03-17T14:07:26.328Z,99.90
2019-03-17T14:09:54.273Z,99.90
2019-03-17T14:12:22.181Z,99.90
2019-03-17T14:14:50.135Z,99.90
2019-03-17T14:17:18.121Z,99.90
2019-03-17T14:19:46.178Z,99.90
2019-03-17T14:22:14.110Z,99.90
2019-03-17T14:24:42.032Z,99.90
2019-03-17T14:27:10.018Z,99.90
2019-03-17T14:29:37.987Z,99.90
2019-03-17T14:32:05.985Z,99.90
2019-03-17T14:34:33.934Z,99.90
2019-03-17T14:37:02.028Z,99.90
2019-03-17T14:39:29.973Z,99.90
2019-03-17T14:41:57.972Z,99.90
2019-03-17T14:44:25.925Z,99.90
2019-03-17T14:46:53.859Z,99.90
2019-03-17T14:49:21.774Z,99.90
2019-03-17T14:51:49.760Z,99.90
2019-03-17T14:54:17.727Z,99.90
2019-03-17T14:56:45.818Z,99.90
2019-03-17T14:59:13.701Z,99.90
2019-03-17T15:01:41.649Z,99.90
2019-03-17T15:04:09.589Z,99.90
2019-03-17T15:06:37.493Z,99.90
2019-03-17T15:09:06.921Z,99.90
2019-03-17T15:11:34.877Z,99.90
2019-03-17T15:14:02.932Z,99.90
2019-03-17T15:16:30.923Z,99.90
2019-03-17T15:18:58.841Z,99.90
2019-03-17T15:21:26.805Z,99.90
2019-03-17T15:23:54.867Z,99.90
2019-03-17T15:26:22.941Z,99.90
2019-03-17T15:28:51.029Z,99.90
2019-03-17T15:31:18.906Z,99.90
2019-03-17T15:33:46.807Z,99.90
2019-03-17T15:36:14.752Z,99.90
2019-03-17T15:38:42.660Z,99.90
2019-03-17T15:41:18.670Z,99.20
2019-03-17T15:43:40.193Z,99.70
2019-03-17T15:46:08.272Z,99.90
2019-03-17T15:48:36.241Z,99.90
2019-03-17T15:51:04.431Z,99.30
2019-03-17T15:53:32.409Z,99.50
2019-03-17T15:56:00.360Z,99.40
2019-03-17T15:58:28.533Z,98.30
2019-03-17T16:00:56.522Z,99.00
2019-03-17T16:03:24.517Z,99.20
2019-03-17T16:05:52.370Z,98.70
2019-03-17T16:08:20.361Z,98.70
2019-03-17T16:10:48.317Z,99.50
2019-03-17T16:13:16.313Z,98.80
2019-03-17T16:15:44.362Z,97.20
2019-03-17T16:18:12.237Z,95.80
2019-03-17T16:20:40.277Z,94.60
2019-03-17T16:23:08.188Z,93.40
2019-03-17T16:25:36.281Z,93.40
2019-03-17T16:28:04.166Z,94.00
2019-03-17T16:30:32.056Z,95.20
2019-03-17T16:33:00.085Z,95.00
2019-03-17T16:35:27.980Z,95.60
2019-03-17T16:37:56.041Z,96.10
2019-03-17T16:40:24.041Z,95.80
2019-03-17T16:42:53.863Z,95.20
2019-03-17T16:45:22.462Z,95.50
2019-03-17T16:47:50.495Z,95.90
2019-03-17T16:50:18.469Z,95.10
2019-03-17T16:52:46.497Z,95.70
2019-03-17T16:55:14.646Z,96.50
2019-03-17T16:57:42.594Z,96.70
2019-03-17T17:00:12.912Z,97.20
2019-03-17T17:02:40.798Z,98.00
2019-03-17T17:05:08.893Z,98.30
2019-03-17T17:07:36.846Z,98.20
2019-03-17T17:10:05.064Z,96.90
2019-03-17T17:12:33.005Z,96.80
2019-03-17T17:15:00.889Z,96.80
2019-03-17T17:17:28.849Z,96.80
2019-03-17T17:19:56.851Z,96.30
2019-03-17T17:22:24.806Z,96.50
2019-03-17T17:24:52.772Z,96.30
2019-03-17T17:27:20.849Z,96.50
2019-03-17T17:29:48.572Z,96.90
2019-03-17T17:32:16.537Z,96.90
2019-03-17T17:34:44.558Z,97.30
2019-03-17T17:37:14.017Z,95.40
2019-03-17T17:39:42.050Z,95.00
2019-03-17T17:42:11.357Z,95.40
2019-03-17T17:44:39.512Z,96.10
2019-03-17T17:47:07.613Z,96.50
2019-03-17T17:49:35.789Z,96.80
2019-03-17T17:52:03.873Z,97.10
2019-03-17T17:54:31.633Z,97.30
2019-03-17T17:56:59.575Z,97.70
2019-03-17T17:59:27.639Z,98.20
2019-03-17T18:01:55.564Z,98.30
2019-03-17T18:04:23.538Z,98.50
2019-03-17T18:06:51.465Z,98.50
2019-03-17T18:09:19.442Z,98.60
2019-03-17T18:11:47.369Z,98.40
2019-03-17T18:14:15.352Z,98.60
2019-03-17T18:16:43.226Z,98.50
2019-03-17T18:19:11.277Z,98.30
2019-03-17T18:21:39.280Z,98.60
2019-03-17T18:24:07.173Z,98.70
2019-03-17T18:26:35.224Z,98.80
2019-03-17T18:29:03.202Z,98.70
2019-03-17T18:31:31.073Z,98.70
2019-03-17T18:33:59.338Z,98.80
2019-03-17T18:36:27.217Z,99.00
2019-03-17T18:38:55.189Z,99.20
2019-03-17T18:41:23.018Z,99.30
2019-03-17T18:43:50.834Z,99.50
2019-03-17T18:46:19.199Z,99.90
2019-03-17T18:48:47.197Z,99.80
2019-03-17T18:51:15.169Z,99.90
2019-03-17T18:53:43.049Z,99.90
2019-03-17T18:56:11.214Z,99.90
2019-03-17T18:58:39.210Z,99.90
2019-03-17T19:01:07.280Z,99.90
2019-03-17T19:03:35.277Z,99.90
2019-03-17T19:06:03.222Z,99.90
2019-03-17T19:08:31.205Z,99.90
2019-03-17T19:10:59.089Z,99.90
2019-03-17T19:13:26.964Z,99.90
2019-03-17T19:15:54.835Z,99.90
2019-03-17T19:18:22.778Z,99.90
2019-03-17T19:20:51.088Z,99.90
2019-03-17T19:23:19.076Z,99.90
2019-03-17T19:25:47.006Z,99.90
2019-03-17T19:28:15.216Z,99.90
2019-03-17T19:30:43.164Z,99.90
2019-03-17T19:33:11.369Z,99.90
2019-03-17T19:35:39.419Z,99.90
2019-03-17T19:38:07.427Z,99.90
2019-03-17T19:40:35.485Z,99.90
2019-03-17T19:43:03.470Z,99.90
2019-03-17T19:45:31.421Z,99.90
2019-03-17T19:47:59.417Z,99.90
2019-03-17T19:50:27.598Z,99.90
2019-03-17T19:52:55.577Z,99.90
2019-03-17T19:55:23.550Z,99.90
2019-03-17T19:57:51.527Z,99.90
2019-03-17T20:00:19.513Z,99.90
2019-03-17T20:02:48.056Z,99.90
2019-03-17T20:05:16.075Z,99.90
2019-03-17T20:07:44.011Z,99.90
2019-03-17T20:10:13.984Z,99.90
2019-03-17T20:12:41.797Z,99.90
2019-03-17T20:15:09.714Z,99.90
2019-03-17T20:17:37.661Z,99.90
2019-03-17T20:20:06.268Z,99.90
2019-03-17T20:22:34.057Z,99.90
2019-03-17T20:25:01.900Z,99.90
2019-03-17T20:27:30.990Z,99.90
2019-03-17T20:29:58.977Z,99.90
2019-03-17T20:32:26.945Z,99.90
2019-03-17T20:34:54.942Z,99.90
2019-03-17T20:37:22.781Z,99.90
2019-03-17T20:39:50.609Z,99.90
2019-03-17T20:42:18.517Z,99.90
2019-03-17T20:44:46.418Z,99.90
2019-03-17T20:47:14.466Z,99.90
2019-03-17T20:49:42.368Z,99.90
2019-03-17T20:52:10.136Z,99.90
2019-03-17T20:54:38.113Z,99.90
2019-03-17T20:57:06.064Z,99.90
2019-03-17T20:59:34.153Z,99.90
2019-03-17T21:02:02.209Z,99.90
2019-03-17T21:04:30.188Z,99.90
2019-03-17T21:06:57.963Z,99.90
2019-03-17T21:09:25.889Z,99.90
2019-03-17T21:11:53.817Z,99.90
2019-03-17T21:14:21.707Z,99.90
2019-03-17T21:16:49.589Z,99.90
2019-03-17T21:19:17.318Z,99.90
2019-03-17T21:21:45.224Z,99.90
2019-03-17T21:24:13.281Z,99.90
2019-03-17T21:26:41.195Z,99.90
2019-03-17T21:29:09.011Z,99.90
2019-03-17T21:31:36.917Z,99.90
2019-03-17T21:34:04.767Z,99.90
2019-03-17T21:36:32.747Z,99.90
2019-03-17T21:39:00.704Z,99.90
2019-03-17T21:41:28.729Z,99.90
2019-03-17T21:43:59.667Z,99.90
2019-03-17T21:46:26.284Z,99.90
2019-03-17T21:48:54.140Z,99.90
2019-03-17T21:51:22.229Z,99.90
2019-03-17T21:53:50.198Z,99.90
2019-03-17T21:56:18.193Z,99.90
2019-03-17T21:58:46.157Z,99.90
2019-03-17T22:01:14.040Z,99.90
2019-03-17T22:03:42.138Z,99.90
2019-03-17T22:06:09.994Z,99.90
2019-03-17T22:08:37.868Z,99.90
2019-03-17T22:11:05.733Z,99.90
2019-03-17T22:13:33.710Z,99.90
2019-03-17T22:16:01.569Z,99.90
2019-03-17T22:18:29.531Z,99.90
2019-03-17T22:20:57.273Z,99.90
2019-03-17T22:23:25.069Z,99.90
2019-03-17T22:25:53.089Z,99.90
2019-03-17T22:28:21.021Z,99.90
2019-03-17T22:30:48.992Z,99.90
2019-03-17T22:33:16.999Z,99.90
2019-03-17T22:35:44.953Z,99.90
2019-03-17T22:38:12.953Z,99.90
2019-03-17T22:40:40.901Z,99.90
2019-03-17T22:43:08.989Z,99.90
2019-03-17T22:45:36.865Z,99.90
2019-03-17T22:48:04.637Z,99.90
2019-03-17T22:50:32.585Z,99.90
2019-03-17T22:53:00.390Z,99.90
2019-03-17T22:55:28.329Z,99.90
2019-03-17T22:57:59.073Z,99.90
2019-03-17T23:00:38.901Z,99.90
2019-03-17T23:03:06.809Z,99.90
2019-03-17T23:05:34.685Z,99.90
2019-03-17T23:08:02.393Z,99.90
2019-03-17T23:10:30.193Z,99.90
2019-03-17T23:12:58.110Z,99.90
2019-03-17T23:15:26.070Z,99.90
2019-03-17T23:17:53.797Z,99.90
2019-03-17T23:20:21.685Z,99.90
2019-03-17T23:22:49.681Z,99.90
2019-03-17T23:25:17.633Z,99.90
2019-03-17T23:27:45.643Z,99.90
2019-03-17T23:30:13.697Z,99.90
2019-03-17T23:32:41.616Z,99.90
2019-03-17T23:35:09.545Z,99.90
2019-03-17T23:37:37.522Z,99.90
2019-03-17T23:40:05.567Z,99.90
2019-03-17T23:42:33.489Z,99.90
2019-03-17T23:45:01.349Z,99.90
2019-03-17T23:47:29.321Z,99.90
2019-03-17T23:49:58.741Z,99.90
2019-03-17T23:52:26.818Z,99.90
2019-03-17T23:54:54.786Z,99.90
2019-03-17T23:57:22.744Z,99.90
2019-03-17T23:59:50.641Z,99.90
